Aviation Digital Data Service (ADDS)

Output produced by METARs form (1737 UTC 22 August 2014)
found at http://aviationweather.gov/adds/metars/
 
KDAG 221650Z AUTO 10004KT 10SM CLR 27/12 A2997 RMK AO2 SLP124 T02670122 TSNO
KDAG 221720Z 2218/2318 08007KT P6SM SKC 
     FM222200 25017G27KT P6SM SKC 
     FM230700 25015KT P6SM SKC
       
KEDW 221658Z 22007KT 50SM CLR 28/08 A2996 RMK AO2A SLP117 T02830084
TAF KEDW 2210/2316 23009KT 9999 SKC QNH2995INS 
     BECMG 2214/2215 VRB06KT 9999 SKC QNH2994INS 
     BECMG 2220/2221 24015G25KT 9999 FEW130 510008 QNH2988INS 
     TEMPO 2222/2303 24025G35KT 520008 
     BECMG 2304/2305 22009KT 9999 SKC QNH2991INS TX35/2223Z TN18/2313Z
       
KVCV 221715Z AUTO 16004KT 10SM CLR 28/09 A3001 RMK AO2
KONT 221653Z 23005KT 10SM CLR 26/16 A2998 RMK AO2 SLP137 T02560161
KONT 221724Z 2218/2324 VRB05KT P6SM FEW090 
     FM222100 25012KT P6SM SKC 
     FM230400 23005KT P6SM SKC 
     FM231000 VRB05KT P6SM BKN010 
     FM231500 VRB05KT P6SM FEW010 
     FM232000 25011KT P6SM SKC
       
KSNA 221726Z 21006KT 10SM SCT017 24/17 A2998 RMK AO2
KSNA 221724Z 2218/2318 VRB05KT P6SM SCT012 
     FM221900 22009KT P6SM SKC 
     FM230700 20005KT P6SM BKN012 
     FM231700 VRB05KT P6SM FEW012
       
KSAN 221651Z 28003KT 10SM SCT016 23/18 A2998 RMK AO2 SLP153 T02330178
KSAN 221724Z 2218/2324 VRB04KT P6SM SCT015 
     FM221900 27010KT P6SM SKC 
     FM230300 28005KT P6SM FEW013 
     FM230500 VRB04KT P6SM OVC012 
     FM231600 VRB03KT P6SM FEW015 
     FM232000 26009KT P6SM FEW015
       
KNID 221656Z 14004KT 10SM CLR 29/09 A2993 RMK AO2 SLP112 T02940089 $
TAF KNID 2215/2315 VRB05KT 9999 SKC QNH2989INS 
     BECMG 2217/2219 17012G18KT 9999 SKC 510009 QNH2987INS WND 140V240 
     BECMG 2219/2221 18018G28KT 9999 SKC 520009 520906 QNH2984INS WND 140V240 
     BECMG 2221/2223 21022G35KT 9999 SKC 530009 530906 QNH2978INS 
     BECMG 2302/2304 21015G25KT 9999 SKC 520009 QNH2982INS 
     BECMG 2308/2310 21008KT 9999 SKC 500000 QNH2985INS T37/2223Z T20/2313Z
       
KNXP 221656Z 11006KT 10SM CLR 26/12 A3007 RMK AO2 SLP149 T02560122
TAF KNXP 2215/2315 VRB05KT 9999 FEW100 QNH2998INS 
     TEMPO 2221/2303 23015G20KT T35/2223Z T21/2313Z
       
KPSP 221653Z 13004KT 10SM CLR 28/17 A2997 RMK AO2 SLP145 T02780172
KPSP 221724Z 2218/2318 VRB06KT P6SM FEW100 
     FM230000 33009KT P6SM SCT100 
     FM230600 VRB04KT P6SM SKC
       
KLAX 221653Z 26006KT 10SM SCT010 BKN016 22/17 A2999 RMK AO2 SLP152 T02220172
KLAX 221732Z 2218/2324 26007KT P6SM SCT010 BKN016 
     FM221900 26006KT P6SM SCT016 
     FM222100 26014KT P6SM FEW070 
     FM230300 28010KT P6SM FEW070 
     FM230800 28006KT P6SM BKN010 
     FM231000 VRB03KT P6SM OVC010 
     FM231700 23006KT P6SM SCT010 BKN015 
     FM232100 26015KT P6SM SKC
       
KCNO 221653Z A2999 RMK AO2 SLPNO $
KSMO 221651Z 20005KT 10SM OVC012 22/17 A2998 RMK AO2 SLP151 T02220167
KLGB 221733Z 17008KT 8SM SCT017 23/18 A2999 RMK AO2
KLGB 221732Z 2218/2318 25005KT P6SM OVC017 
     TEMPO 2218/2219 SCT020 
     FM222000 18007KT P6SM SKC 
     FM222300 30010KT P6SM SKC 
     FM230400 VRB03KT P6SM SKC 
     FM230900 VRB03KT P6SM BKN012 
     FM231100 VRB03KT P6SM OVC010
       
KVNY 221651Z 00000KT 10SM CLR 24/15 A2998 RMK AO2 SLP142 T02440150
KVNY 221732Z 2218/2318 VRB03KT P6SM SKC 
     FM222100 14008KT P6SM SKC 
     FM230300 VRB03KT P6SM SKC 
     FM231200 VRB03KT 5SM BR BKN006 
     FM231600 VRB05KT P6SM SKC
       
KBUR 221653Z 12005KT 10SM CLR 23/15 A2998 RMK AO2 SLP139 T02330150
KBUR 221732Z 2218/2318 VRB05KT P6SM SKC 
     FM222000 17008KT P6SM SKC 
     FM230300 VRB03KT P6SM SKC 
     FM231100 VRB03KT 5SM BR BKN006 
     FM231600 15005KT P6SM SKC
       
KBFL 221654Z 30004KT 10SM CLR 28/12 A2992 RMK AO2 SLP124 T02830122
KBFL 221129Z 2212/2312 VRB03KT P6SM SKC 
     FM222000 30011KT P6SM SKC 
     FM230300 34008KT P6SM SKC 
     FM230900 VRB03KT P6SM SKC
       
KPMD 221653Z 22011KT 10SM CLR 29/09 A2998 RMK AO2 SLP122 T02940089
KPMD 221732Z 2218/2318 22011KT P6SM SKC 
     FM222000 24012KT P6SM SKC 
     FM222200 24020G30KT P6SM SKC 
     FM230300 23014KT P6SM SKC 
     FM230700 23005KT P6SM SKC 
     FM231700 22012KT P6SM SKC
       
KOXR 221731Z 25006KT 10SM BKN010 21/16 A2999 RMK AO2 T02060161
KOXR 221607Z 2216/2312 VRB05KT P6SM OVC006 
     TEMPO 2217/2218 SCT010 
     FM221800 26005KT P6SM SCT012 
     FM222000 27012KT P6SM SKC 
     FM230400 28006KT P6SM SKC 
     FM230800 VRB03KT P6SM BKN007 
     FM231000 VRB03KT 5SM BR OVC005
       
KWJF 221656Z 22011G15KT 10SM CLR 30/08 A2997 RMK AO2 SLP129 T03000083
KWJF 221732Z 2218/2318 23015KT P6SM SKC 
     FM222200 24025G32KT P6SM SKC 
     FM230200 23016KT P6SM SKC 
     FM231400 23008KT P6SM SKC
       
KCMA 221655Z 19005KT 10SM CLR 23/16 A2997 RMK AO2 SLP157 T02280161
KFAT 221653Z 14006KT 10SM CLR 29/14 A2991 RMK AO2 SLP122 MTNS OBSC FU HZ DSNT N-E-S T02890144
KFAT 221129Z 2212/2312 VRB03KT P6SM SKC 
     FM222300 31007KT P6SM SKC
       
KEED 221656Z AUTO 00000KT 10SM CLR 28/14 A2996 RMK AO2 SLP115 T02830139
KEED 221720Z 2218/2318 VRB05KT P6SM SKC 
     FM222100 21012G20KT P6SM FEW120 
     FM230400 24010KT P6SM SKC
       
KLSV 221658Z AUTO 04003KT 10SM CLR 26/14 A2998 RMK AO2 SLP132 T02610139 $
TAF KLSV 2217/2323 21009KT 9999 SKC QNH2984INS 
     BECMG 2222/2223 21012G18KT 9999 SKC QNH2980INS 
     TEMPO 2300/2304 21015G25KT 520009 
     BECMG 2307/2308 19009KT 9999 SKC QNH2983INS TX35/2222Z TN21/2312Z
       
KLAS 221656Z VRB03KT 10SM CLR 27/12 A2996 RMK AO2 SLP121 T02720117
KLAS 221720Z 2218/2318 10008KT P6SM SKC 
     FM222000 16010KT P6SM FEW120 
     FM222200 21014G22KT P6SM FEW120 
     FM230900 19010KT P6SM SKC
       
KHII 221710Z AUTO 20003KT 10SM CLR 28/15 A2996 RMK AO2
KIFP 221715Z AUTO 22007KT 10SM CLR 28/14 A2996 RMK AO2 PWINO